Time;durP1;ratioP1;P1;durP2;ratioP2;P2;SDS_P1;SDS_P2;PMS_P1;PMS_P2;Temp;Humidity;BMP_temperature;BMP_pressure;BME280_temperature;BME280_humidity;BME280_pressure;Samples;Min_cycle;Max_cycle;Signal;HPM_P1;HPM_P2
2023/05/16 00:01:13;;;;;;;7.43;6.17;;;14.70;99.90;;;;;;4988643;28;20304;-72
2023/05/16 00:03:41;;;;;;;7.03;6.53;;;14.60;99.90;;;;;;4988505;28;20234;-72
2023/05/16 00:06:08;;;;;;;7.63;6.80;;;14.60;99.90;;;;;;4988051;28;20207;-72
2023/05/16 00:08:36;;;;;;;7.80;7.20;;;14.50;99.90;;;;;;4987459;28;20261;-72
2023/05/16 00:11:03;;;;;;;7.53;6.90;;;14.50;99.90;;;;;;4988119;28;20581;-72
2023/05/16 00:13:30;;;;;;;8.53;7.73;;;14.40;99.90;;;;;;4988451;28;20269;-72
2023/05/16 00:15:58;;;;;;;8.77;7.90;;;14.30;99.90;;;;;;4979461;28;20216;-72
2023/05/16 00:18:25;;;;;;;8.60;7.80;;;14.40;99.90;;;;;;4987399;28;20210;-72
2023/05/16 00:20:53;;;;;;;8.70;7.80;;;14.30;99.90;;;;;;4987905;28;20240;-72
2023/05/16 00:23:20;;;;;;;8.97;8.07;;;14.40;99.90;;;;;;4987842;28;20298;-72
2023/05/16 00:25:49;;;;;;;9.33;8.57;;;14.30;99.90;;;;;;4988267;28;20300;-72
2023/05/16 00:28:16;;;;;;;10.10;9.10;;;14.30;99.90;;;;;;4987981;28;20210;-72
2023/05/16 00:30:43;;;;;;;13.53;10.40;;;14.30;99.90;;;;;;4987886;28;20680;-71
2023/05/16 00:33:09;;;;;;;10.00;8.87;;;14.30;99.90;;;;;;4987584;28;20634;-70
2023/05/16 00:35:36;;;;;;;11.53;10.50;;;14.20;99.90;;;;;;4988301;28;20293;-70
2023/05/16 00:38:03;;;;;;;11.83;10.60;;;14.20;99.90;;;;;;4988253;28;20264;-70
2023/05/16 00:40:30;;;;;;;11.17;10.17;;;14.10;99.90;;;;;;4978671;28;20234;-70
2023/05/16 00:42:59;;;;;;;15.37;10.67;;;14.20;99.90;;;;;;4982547;28;20206;-71
2023/05/16 00:45:26;;;;;;;12.77;10.73;;;14.10;99.90;;;;;;4987826;28;20858;-71
2023/05/16 00:47:52;;;;;;;12.17;10.97;;;14.00;99.90;;;;;;4987441;28;20811;-70
2023/05/16 00:50:20;;;;;;;12.57;11.37;;;14.00;99.90;;;;;;4987752;28;20306;-71
2023/05/16 00:52:47;;;;;;;13.10;11.77;;;13.90;99.90;;;;;;4987621;28;20694;-71
2023/05/16 00:55:14;;;;;;;12.00;10.83;;;13.90;99.90;;;;;;4987258;28;20296;-71
2023/05/16 00:57:41;;;;;;;11.53;10.50;;;13.80;99.90;;;;;;4987481;28;20660;-72
2023/05/16 01:00:10;;;;;;;12.33;11.03;;;13.80;99.90;;;;;;4987148;28;20225;-71
2023/05/16 01:02:38;;;;;;;16.47;11.00;;;13.80;99.90;;;;;;4986849;28;20210;-71
2023/05/16 01:05:06;;;;;;;12.93;11.63;;;13.70;99.90;;;;;;4987564;28;20322;-71
2023/05/16 01:07:33;;;;;;;12.23;11.03;;;13.50;99.90;;;;;;4987175;28;20240;-72
2023/05/16 01:10:00;;;;;;;13.40;11.47;;;13.40;99.90;;;;;;4986747;28;20672;-71
2023/05/16 01:12:37;;;;;;;13.83;11.33;;;13.40;99.90;;;;;;4977022;28;20748;-72
2023/05/16 01:15:10;;;;;;;11.57;10.53;;;13.50;99.90;;;;;;4981295;28;20202;-71
2023/05/16 01:17:50;;;;;;;11.87;10.87;;;13.40;99.90;;;;;;4986566;28;20198;-71
2023/05/16 01:20:28;;;;;;;12.37;11.07;;;13.30;99.90;;;;;;4986697;28;20229;-71
2023/05/16 01:23:07;;;;;;;13.17;10.77;;;13.20;99.90;;;;;;4986535;28;20206;-71
2023/05/16 01:25:45;;;;;;;13.33;11.60;;;13.20;99.90;;;;;;4986761;28;20198;-71
2023/05/16 01:28:16;;;;;;;12.47;10.70;;;13.20;99.90;;;;;;4987431;28;21160;-71
2023/05/16 01:30:44;;;;;;;12.50;10.47;;;13.10;99.90;;;;;;4987133;28;20198;-70
2023/05/16 01:33:11;;;;;;;11.67;10.67;;;13.10;99.90;;;;;;4985723;28;20206;-71
2023/05/16 01:35:43;;;;;;;12.70;10.40;;;13.00;99.90;;;;;;4986278;28;20923;-71
2023/05/16 01:38:16;;;;;;;13.13;10.57;;;12.90;99.90;;;;;;4986384;28;20208;-71
2023/05/16 01:40:53;;;;;;;10.97;9.97;;;12.80;99.90;;;;;;4975911;28;20226;-71
2023/05/16 01:43:29;;;;;;;12.43;9.73;;;12.80;99.90;;;;;;4982265;28;20229;-71
2023/05/16 01:46:02;;;;;;;10.83;9.83;;;12.80;99.90;;;;;;4986030;28;20197;-71
2023/05/16 01:48:36;;;;;;;10.53;9.53;;;12.90;99.90;;;;;;4986641;28;20602;-71
2023/05/16 01:51:04;;;;;;;12.60;9.40;;;12.70;99.90;;;;;;4986557;28;20206;-71
2023/05/16 01:53:37;;;;;;;10.23;9.33;;;12.60;99.90;;;;;;4986025;28;20684;-71
2023/05/16 01:56:08;;;;;;;12.60;9.43;;;12.50;99.90;;;;;;4986877;28;20207;-71
2023/05/16 01:58:38;;;;;;;11.00;9.90;;;12.50;99.90;;;;;;4985130;28;20267;-71
2023/05/16 02:01:06;;;;;;;13.17;9.90;;;12.50;99.90;;;;;;4966860;28;20333;-71
2023/05/16 02:03:33;;;;;;;11.10;10.10;;;12.40;99.90;;;;;;4983514;28;20210;-71
2023/05/16 02:06:01;;;;;;;10.60;9.50;;;12.20;99.90;;;;;;4986269;28;20605;-71
2023/05/16 02:08:28;;;;;;;10.53;9.50;;;12.20;99.90;;;;;;4985424;28;20736;-71
2023/05/16 02:10:55;;;;;;;11.43;9.27;;;12.30;99.90;;;;;;4986273;28;20210;-71
2023/05/16 02:13:22;;;;;;;11.10;9.97;;;12.30;99.90;;;;;;4986313;28;20237;-71
2023/05/16 02:15:51;;;;;;;10.00;8.70;;;12.30;99.90;;;;;;4986153;28;20210;-73
2023/05/16 02:18:18;;;;;;;14.10;9.83;;;12.40;99.90;;;;;;4978073;28;20218;-74
2023/05/16 02:20:46;;;;;;;10.60;9.63;;;12.40;99.90;;;;;;4975788;28;20834;-75
2023/05/16 02:23:13;;;;;;;10.87;9.77;;;12.30;99.90;;;;;;4976350;28;21025;-71
2023/05/16 02:25:40;;;;;;;11.00;9.77;;;12.40;99.90;;;;;;4979607;28;20313;-72
2023/05/16 02:28:07;;;;;;;10.70;9.70;;;12.50;99.90;;;;;;4978239;28;20617;-72
2023/05/16 02:30:34;;;;;;;10.70;9.53;;;12.40;99.90;;;;;;4971028;28;20313;-70
2023/05/16 02:33:02;;;;;;;11.47;10.27;;;12.30;99.90;;;;;;4979213;28;20229;-71
2023/05/16 02:35:29;;;;;;;12.27;11.07;;;12.20;99.90;;;;;;4984711;28;20771;-71
2023/05/16 02:37:56;;;;;;;14.17;10.67;;;12.20;99.90;;;;;;4985436;28;20225;-71
2023/05/16 02:40:23;;;;;;;11.53;10.53;;;12.20;99.90;;;;;;4984055;28;20238;-71
2023/05/16 02:42:50;;;;;;;12.57;10.20;;;12.20;99.90;;;;;;4985015;28;20206;-71
2023/05/16 02:45:17;;;;;;;11.67;10.57;;;12.20;99.90;;;;;;4984961;28;20292;-71
2023/05/16 02:47:44;;;;;;;13.13;11.83;;;12.10;99.90;;;;;;4984258;28;20687;-71
2023/05/16 02:50:12;;;;;;;12.87;11.60;;;12.20;99.90;;;;;;4984278;28;20634;-71
2023/05/16 02:52:39;;;;;;;12.67;11.40;;;12.10;99.90;;;;;;4984167;28;20309;-71
2023/05/16 02:55:07;;;;;;;12.97;11.50;;;12.00;99.90;;;;;;4986100;28;20253;-71
2023/05/16 02:57:34;;;;;;;12.93;11.27;;;12.00;99.90;;;;;;4988118;28;20229;-71
2023/05/16 03:00:01;;;;;;;13.43;12.03;;;12.00;99.90;;;;;;4988164;28;20240;-71
2023/05/16 03:02:28;;;;;;;12.17;10.50;;;12.00;99.90;;;;;;4978305;28;20617;-72
2023/05/16 03:04:55;;;;;;;12.63;11.40;;;12.10;99.90;;;;;;4975932;28;20301;-72
2023/05/16 03:07:23;;;;;;;13.30;11.17;;;12.10;99.90;;;;;;4986503;28;20210;-72
2023/05/16 03:09:50;;;;;;;12.23;11.10;;;12.10;99.90;;;;;;4987150;28;20206;-71
2023/05/16 03:12:17;;;;;;;12.63;11.33;;;12.00;99.90;;;;;;4988246;28;20213;-72
2023/05/16 03:14:44;;;;;;;12.70;11.40;;;12.00;99.90;;;;;;4989054;28;20210;-72
2023/05/16 03:17:11;;;;;;;13.80;12.50;;;12.00;99.90;;;;;;4979772;28;20293;-72
2023/05/16 03:19:38;;;;;;;15.37;12.10;;;11.90;99.90;;;;;;4969601;28;20291;-71
2023/05/16 03:22:05;;;;;;;14.93;12.33;;;11.90;99.90;;;;;;4969402;28;20214;-71
2023/05/16 03:24:33;;;;;;;14.10;11.87;;;11.90;99.90;;;;;;4969246;28;20748;-71
2023/05/16 03:27:00;;;;;;;12.93;11.70;;;12.00;99.90;;;;;;4969718;28;20215;-71
2023/05/16 03:29:27;;;;;;;13.13;11.93;;;12.00;99.90;;;;;;4969269;28;20988;-71
2023/05/16 03:31:54;;;;;;;12.97;11.67;;;12.00;99.90;;;;;;4969974;28;20218;-71
2023/05/16 03:34:21;;;;;;;13.47;12.10;;;12.00;99.90;;;;;;4968965;28;20347;-71
2023/05/16 03:36:48;;;;;;;13.50;12.20;;;11.80;99.90;;;;;;4978921;28;20320;-71
2023/05/16 03:39:16;;;;;;;12.90;11.50;;;11.90;99.90;;;;;;4988155;28;20329;-71
2023/05/16 03:41:44;;;;;;;14.30;12.80;;;11.70;99.90;;;;;;4969882;28;20249;-72
2023/05/16 03:44:11;;;;;;;14.30;12.37;;;11.70;99.90;;;;;;4969176;28;20718;-71
2023/05/16 03:46:38;;;;;;;14.63;13.10;;;11.70;99.90;;;;;;4968807;28;20214;-71
2023/05/16 03:49:05;;;;;;;15.40;12.93;;;11.70;99.90;;;;;;4987253;28;20222;-71
2023/05/16 03:51:33;;;;;;;13.83;12.40;;;11.90;99.90;;;;;;4988258;28;20213;-72
2023/05/16 03:54:00;;;;;;;13.50;12.10;;;12.00;99.90;;;;;;4988679;28;20622;-72
2023/05/16 03:56:26;;;;;;;13.33;11.90;;;12.00;99.90;;;;;;4988560;28;20234;-71
2023/05/16 03:58:55;;;;;;;15.47;12.40;;;12.00;99.90;;;;;;4988382;28;20308;-71
2023/05/16 04:01:22;;;;;;;13.93;12.57;;;12.00;99.90;;;;;;4988347;28;20248;-72
2023/05/16 04:03:49;;;;;;;14.87;12.40;;;11.90;99.90;;;;;;4988063;28;20236;-72
2023/05/16 04:06:16;;;;;;;14.53;12.53;;;11.80;99.90;;;;;;4987431;28;20210;-71
2023/05/16 04:08:43;;;;;;;13.87;12.47;;;11.90;99.90;;;;;;4987783;28;20705;-71
2023/05/16 04:11:11;;;;;;;13.20;12.00;;;11.80;99.90;;;;;;4987586;28;20867;-71
2023/05/16 04:13:37;;;;;;;13.40;12.00;;;11.70;99.90;;;;;;4987735;28;20211;-72
2023/05/16 04:16:07;;;;;;;14.67;12.93;;;11.60;99.90;;;;;;4987665;28;20213;-71
2023/05/16 04:18:34;;;;;;;13.13;11.57;;;11.60;99.90;;;;;;4968199;28;20215;-71
2023/05/16 04:21:01;;;;;;;13.43;12.13;;;11.60;99.90;;;;;;4968367;28;20238;-71
2023/05/16 04:23:33;;;;;;;14.00;11.70;;;11.60;99.90;;;;;;4968407;28;20408;-72
2023/05/16 04:26:00;;;;;;;12.93;11.63;;;11.50;99.90;;;;;;4968186;28;20658;-71
2023/05/16 04:28:27;;;;;;;13.53;12.13;;;11.60;99.90;;;;;;4968465;28;20222;-71
2023/05/16 04:30:54;;;;;;;13.57;12.27;;;11.70;99.90;;;;;;4968438;28;20245;-71
2023/05/16 04:33:22;;;;;;;14.33;12.70;;;11.60;99.90;;;;;;4968324;28;20207;-71
2023/05/16 04:35:49;;;;;;;14.30;12.90;;;11.50;99.90;;;;;;4969982;28;20685;-71
2023/05/16 04:38:16;;;;;;;14.23;12.73;;;11.40;99.90;;;;;;4987571;28;20210;-72
2023/05/16 04:40:43;;;;;;;14.53;12.47;;;11.30;99.90;;;;;;4987582;28;20857;-71
2023/05/16 04:43:10;;;;;;;16.27;13.10;;;11.30;99.90;;;;;;4987882;28;20691;-71
2023/05/16 04:45:37;;;;;;;17.37;13.80;;;11.30;99.90;;;;;;4987903;28;20237;-71
2023/05/16 04:48:04;;;;;;;14.10;12.57;;;11.20;99.90;;;;;;4985050;28;20238;-71
2023/05/16 04:50:33;;;;;;;17.10;13.23;;;11.20;99.90;;;;;;4987115;28;20221;-72
2023/05/16 04:53:00;;;;;;;14.50;12.93;;;11.20;99.90;;;;;;4987857;28;20293;-71
2023/05/16 04:55:27;;;;;;;14.83;13.33;;;11.20;99.90;;;;;;4987248;28;20206;-72
2023/05/16 04:57:53;;;;;;;14.60;13.10;;;11.20;99.90;;;;;;4987432;28;20326;-74
2023/05/16 05:00:21;;;;;;;15.20;12.97;;;11.20;99.90;;;;;;4987299;28;20767;-72
2023/05/16 05:02:48;;;;;;;15.37;13.27;;;11.30;99.90;;;;;;4987240;28;20216;-71
2023/05/16 05:05:14;;;;;;;13.27;12.07;;;11.40;99.90;;;;;;4986585;28;20304;-71
2023/05/16 05:07:43;;;;;;;14.97;12.97;;;11.40;99.90;;;;;;4970863;28;20272;-71
2023/05/16 05:10:11;;;;;;;16.60;13.30;;;11.30;99.90;;;;;;4973784;28;20293;-71
2023/05/16 05:12:39;;;;;;;15.53;11.93;;;11.20;99.90;;;;;;4987371;28;20284;-71
2023/05/16 05:15:07;;;;;;;13.40;12.17;;;11.20;99.90;;;;;;4987284;28;20293;-71
2023/05/16 05:17:34;;;;;;;15.77;12.90;;;11.30;99.90;;;;;;4986243;28;20233;-71
2023/05/16 05:20:05;;;;;;;15.13;12.50;;;11.30;99.90;;;;;;4986732;28;20782;-71
2023/05/16 05:22:32;;;;;;;13.70;12.20;;;11.30;99.90;;;;;;4987063;28;20273;-71
2023/05/16 05:25:00;;;;;;;12.87;11.63;;;11.20;99.90;;;;;;4986795;28;20262;-72
2023/05/16 05:27:27;;;;;;;13.33;11.33;;;11.30;99.90;;;;;;4987062;28;20308;-72
2023/05/16 05:29:55;;;;;;;13.00;11.23;;;11.30;99.90;;;;;;4987094;28;20307;-72
2023/05/16 05:32:21;;;;;;;12.13;10.90;;;11.30;99.90;;;;;;4986996;28;20228;-72
2023/05/16 05:34:48;;;;;;;11.57;10.30;;;11.30;99.90;;;;;;4987127;28;20305;-72
2023/05/16 05:37:15;;;;;;;12.83;10.23;;;11.40;99.90;;;;;;4987258;28;20300;-72
2023/05/16 05:39:42;;;;;;;11.20;10.10;;;11.50;99.90;;;;;;4986582;28;20208;-72
2023/05/16 05:42:11;;;;;;;11.10;10.07;;;11.50;99.90;;;;;;4987129;28;20320;-71
2023/05/16 05:44:38;;;;;;;11.60;10.40;;;11.40;99.90;;;;;;4986429;28;20213;-72
2023/05/16 05:47:06;;;;;;;11.43;10.03;;;11.40;99.90;;;;;;4986556;28;20210;-71
2023/05/16 05:49:34;;;;;;;10.83;9.90;;;11.40;99.90;;;;;;4986302;28;20297;-72
2023/05/16 05:52:01;;;;;;;13.17;10.03;;;11.40;99.90;;;;;;4986936;28;20210;-71
2023/05/16 05:54:29;;;;;;;11.33;10.23;;;11.50;99.90;;;;;;4986462;28;20254;-72
2023/05/16 05:56:56;;;;;;;10.87;9.87;;;11.50;99.90;;;;;;4986854;28;20321;-72
2023/05/16 05:59:25;;;;;;;10.43;9.43;;;11.50;99.90;;;;;;4986616;28;20293;-71
2023/05/16 06:01:52;;;;;;;11.03;9.90;;;11.50;99.90;;;;;;4984657;28;20234;-72
2023/05/16 06:04:19;;;;;;;10.00;9.20;;;11.60;99.90;;;;;;4985140;28;20632;-71
2023/05/16 06:06:46;;;;;;;10.23;9.23;;;11.60;99.90;;;;;;4986902;28;20213;-72
2023/05/16 06:09:13;;;;;;;9.20;8.33;;;11.70;99.90;;;;;;4986044;28;20234;-72
2023/05/16 06:11:40;;;;;;;8.83;8.13;;;11.70;99.90;;;;;;4986666;28;20210;-71
2023/05/16 06:14:07;;;;;;;8.83;8.03;;;11.70;99.90;;;;;;4986535;28;20297;-72
2023/05/16 06:16:35;;;;;;;8.87;8.00;;;11.70;99.90;;;;;;4986057;28;20221;-72
2023/05/16 06:19:02;;;;;;;10.10;8.37;;;11.70;99.90;;;;;;4986178;28;20253;-72
2023/05/16 06:21:29;;;;;;;9.03;7.97;;;11.70;99.90;;;;;;4986230;28;20333;-71
2023/05/16 06:23:56;;;;;;;8.50;7.80;;;11.60;99.90;;;;;;4985926;28;20292;-72
2023/05/16 06:26:23;;;;;;;7.87;7.20;;;11.60;99.90;;;;;;4985879;28;20734;-71
2023/05/16 06:28:50;;;;;;;9.23;7.33;;;11.60;99.90;;;;;;4986395;28;20238;-71
2023/05/16 06:31:17;;;;;;;7.40;6.70;;;11.50;99.90;;;;;;4990225;28;20232;-71
2023/05/16 06:33:45;;;;;;;7.30;6.57;;;11.60;99.90;;;;;;4989932;28;20206;-71
2023/05/16 06:36:12;;;;;;;6.73;6.20;;;11.70;99.90;;;;;;4990035;28;20300;-72
2023/05/16 06:38:39;;;;;;;8.73;6.30;;;11.80;99.90;;;;;;4989806;28;20265;-71
2023/05/16 06:41:06;;;;;;;7.30;6.27;;;11.80;99.90;;;;;;4975857;28;20269;-71
2023/05/16 06:43:32;;;;;;;6.23;5.73;;;11.80;99.90;;;;;;4971266;28;20318;-71
2023/05/16 06:45:59;;;;;;;6.40;5.90;;;11.70;99.90;;;;;;4989784;28;20650;-72
2023/05/16 06:48:26;;;;;;;5.50;5.10;;;11.60;99.90;;;;;;4989791;28;20214;-72
2023/05/16 06:50:54;;;;;;;5.77;5.37;;;11.60;99.90;;;;;;4989721;28;20673;-71
2023/05/16 06:53:21;;;;;;;6.53;5.63;;;11.60;99.90;;;;;;4970012;28;20277;-72
2023/05/16 06:55:48;;;;;;;5.77;5.27;;;11.50;99.90;;;;;;4970363;28;20277;-72
2023/05/16 06:58:15;;;;;;;6.00;5.13;;;11.50;99.90;;;;;;4970231;28;20301;-71
2023/05/16 07:00:42;;;;;;;7.93;5.00;;;11.40;99.90;;;;;;4989828;28;20318;-71
2023/05/16 07:03:09;;;;;;;6.97;4.90;;;11.40;99.90;;;;;;4989989;28;20214;-72
2023/05/16 07:05:36;;;;;;;4.90;4.50;;;11.50;99.90;;;;;;4989618;28;20314;-71
2023/05/16 07:08:05;;;;;;;5.83;4.93;;;11.50;99.90;;;;;;4989052;28;20329;-71
2023/05/16 07:10:32;;;;;;;7.10;4.90;;;11.50;99.90;;;;;;4979897;28;20732;-71
2023/05/16 07:13:00;;;;;;;6.13;4.63;;;11.60;99.90;;;;;;4969776;28;20228;-72
2023/05/16 07:15:27;;;;;;;5.23;4.37;;;11.70;99.90;;;;;;4970282;28;20218;-72
2023/05/16 07:17:54;;;;;;;4.90;4.20;;;11.90;99.90;;;;;;4984430;28;20237;-71
2023/05/16 07:20:21;;;;;;;5.07;4.03;;;12.00;99.90;;;;;;4989055;28;20618;-72
2023/05/16 07:22:48;;;;;;;5.87;3.80;;;12.00;99.90;;;;;;4989503;28;20234;-72
2023/05/16 07:25:17;;;;;;;3.80;3.50;;;12.00;99.90;;;;;;4988920;28;20238;-71
2023/05/16 07:27:44;;;;;;;3.57;3.20;;;11.90;99.90;;;;;;4989173;28;20214;-72
2023/05/16 07:30:12;;;;;;;7.57;3.83;;;12.10;99.90;;;;;;4988867;28;20214;-72
2023/05/16 07:32:39;;;;;;;12.77;4.57;;;12.20;99.90;;;;;;4989016;28;20681;-72
2023/05/16 07:35:07;;;;;;;3.37;3.07;;;12.30;99.90;;;;;;4989138;28;20202;-71
2023/05/16 07:37:34;;;;;;;3.60;3.10;;;12.10;99.90;;;;;;4988730;28;20206;-71
2023/05/16 07:40:02;;;;;;;4.97;3.20;;;12.00;99.90;;;;;;4983469;28;20218;-72
2023/05/16 07:42:31;;;;;;;4.00;3.40;;;12.00;99.90;;;;;;4968655;28;20231;-71
2023/05/16 07:44:58;;;;;;;3.47;2.93;;;12.00;99.90;;;;;;4981608;28;20276;-71
2023/05/16 07:47:25;;;;;;;4.00;3.00;;;12.00;99.90;;;;;;4988278;28;20301;-71
2023/05/16 07:49:52;;;;;;;3.30;3.10;;;11.90;99.90;;;;;;4988518;28;20305;-71
2023/05/16 07:52:19;;;;;;;4.00;3.60;;;12.00;99.90;;;;;;4988568;28;20214;-71
2023/05/16 07:54:47;;;;;;;3.37;3.13;;;12.00;99.90;;;;;;4988636;28;20218;-71
2023/05/16 07:57:14;;;;;;;3.67;3.33;;;12.00;99.90;;;;;;4988767;28;20317;-71
2023/05/16 07:59:43;;;;;;;3.57;3.27;;;12.00;99.90;;;;;;4988705;28;20747;-71
2023/05/16 08:02:10;;;;;;;6.30;3.43;;;11.90;99.90;;;;;;4981630;28;20325;-72
2023/05/16 08:04:37;;;;;;;4.00;3.60;;;11.90;99.90;;;;;;4969777;28;20293;-73
2023/05/16 08:07:05;;;;;;;3.93;3.13;;;11.90;99.90;;;;;;4969367;28;20291;-72
2023/05/16 08:09:32;;;;;;;3.57;3.27;;;11.80;99.90;;;;;;4969529;28;20239;-71
2023/05/16 08:12:02;;;;;;;3.30;3.10;;;11.70;99.90;;;;;;4988644;28;20218;-72
2023/05/16 08:14:29;;;;;;;5.13;3.20;;;11.80;99.90;;;;;;4988756;28;20222;-72
2023/05/16 08:16:58;;;;;;;3.40;2.90;;;11.80;99.90;;;;;;4988559;28;20225;-71
2023/05/16 08:19:25;;;;;;;3.10;2.87;;;11.90;99.90;;;;;;4987990;28;20688;-72
2023/05/16 08:21:52;;;;;;;12.97;3.07;;;12.00;99.90;;;;;;4988209;28;20277;-72
2023/05/16 08:24:19;;;;;;;2.67;2.47;;;12.20;99.90;;;;;;4987967;28;20300;-72
2023/05/16 08:26:45;;;;;;;3.30;2.57;;;12.30;99.90;;;;;;4988153;28;20218;-72
2023/05/16 08:29:13;;;;;;;6.87;3.20;;;12.20;99.90;;;;;;4987999;28;20238;-72
2023/05/16 08:31:40;;;;;;;3.23;2.40;;;12.20;99.90;;;;;;4988072;28;20668;-71
2023/05/16 08:34:09;;;;;;;2.90;2.60;;;12.10;99.90;;;;;;4988215;28;20207;-71
2023/05/16 08:36:36;;;;;;;2.63;2.43;;;12.10;99.90;;;;;;4987872;28;20293;-71
2023/05/16 08:39:03;;;;;;;6.20;2.80;;;12.10;99.90;;;;;;4987837;28;20209;-71
2023/05/16 08:41:31;;;;;;;2.90;2.70;;;12.20;99.90;;;;;;4987925;28;20238;-71
2023/05/16 08:43:57;;;;;;;2.50;2.30;;;12.30;99.90;;;;;;4987837;28;20623;-71
2023/05/16 08:46:25;;;;;;;4.23;2.50;;;12.30;99.90;;;;;;4987262;28;20329;-72
2023/05/16 08:48:53;;;;;;;5.03;2.67;;;12.10;99.90;;;;;;4987866;28;20266;-71
2023/05/16 08:51:23;;;;;;;2.40;2.17;;;12.20;99.90;;;;;;4987078;28;20336;-71
2023/05/16 08:53:54;;;;;;;3.30;2.30;;;12.20;99.90;;;;;;4987363;28;20293;-71
2023/05/16 08:56:22;;;;;;;5.20;2.50;;;12.10;99.90;;;;;;4987600;28;20257;-72
2023/05/16 08:58:50;;;;;;;2.93;2.40;;;12.20;99.90;;;;;;4987272;28;20256;-71
2023/05/16 09:01:19;;;;;;;2.30;2.10;;;12.20;99.90;;;;;;4987345;28;20293;-71
2023/05/16 09:03:47;;;;;;;3.17;2.10;;;12.10;99.90;;;;;;4987082;28;20206;-71
2023/05/16 09:06:14;;;;;;;2.23;2.13;;;12.10;99.90;;;;;;4987631;28;20206;-72
2023/05/16 09:08:45;;;;;;;3.03;2.33;;;12.10;99.90;;;;;;4986872;28;21004;-71
2023/05/16 09:11:12;;;;;;;4.27;2.00;;;12.20;99.90;;;;;;4972932;28;20203;-71
2023/05/16 09:13:39;;;;;;;2.83;1.80;;;12.20;99.90;;;;;;4968089;28;20206;-71
2023/05/16 09:16:11;;;;;;;6.33;2.27;;;12.30;99.90;;;;;;4968178;28;20282;-71
2023/05/16 09:18:38;;;;;;;4.13;2.30;;;12.30;99.90;;;;;;4987247;28;20264;-71
2023/05/16 09:21:06;;;;;;;7.67;2.47;;;12.40;99.90;;;;;;4987311;28;20241;-71
2023/05/16 09:23:33;;;;;;;6.37;2.10;;;12.50;99.90;;;;;;4987150;28;20539;-71
2023/05/16 09:26:02;;;;;;;3.23;1.73;;;12.60;99.90;;;;;;4987297;28;20637;-71
2023/05/16 09:28:29;;;;;;;3.43;1.93;;;12.60;99.90;;;;;;4986908;28;20212;-71
2023/05/16 09:30:58;;;;;;;3.23;1.87;;;12.60;99.90;;;;;;4987075;28;20214;-71
2023/05/16 09:33:27;;;;;;;3.27;2.00;;;12.60;99.90;;;;;;4986593;28;20210;-71
2023/05/16 09:35:58;;;;;;;2.07;1.87;;;12.40;99.90;;;;;;4986750;28;20210;-71
2023/05/16 09:38:26;;;;;;;4.23;1.87;;;12.40;99.90;;;;;;4986782;28;20214;-72
2023/05/16 09:40:53;;;;;;;6.13;2.10;;;12.40;99.90;;;;;;4986618;28;20217;-70
2023/05/16 09:43:25;;;;;;;5.27;1.90;;;12.60;99.90;;;;;;4986985;28;20422;-71
2023/05/16 09:45:53;;;;;;;4.53;2.13;;;12.70;99.90;;;;;;4986464;28;20749;-71
2023/05/16 09:48:22;;;;;;;132.17;12.03;;;12.70;99.90;;;;;;4970355;28;20297;-72
2023/05/16 09:50:52;;;;;;;10.80;2.60;;;12.80;99.90;;;;;;4966797;28;20207;-71
2023/05/16 09:53:25;;;;;;;4.37;2.30;;;12.80;99.90;;;;;;4966687;28;20737;-72
2023/05/16 09:56:00;;;;;;;5.50;2.70;;;12.90;99.90;;;;;;4967433;28;20242;-71
2023/05/16 09:58:30;;;;;;;6.27;2.50;;;12.80;99.90;;;;;;4966990;28;20912;-71
2023/05/16 10:00:58;;;;;;;3.40;2.20;;;12.60;99.90;;;;;;4967012;28;20289;-71
2023/05/16 10:03:26;;;;;;;3.77;2.27;;;12.80;99.90;;;;;;4983827;28;20246;-72
2023/05/16 10:05:53;;;;;;;6.50;2.17;;;12.90;99.90;;;;;;4985891;28;20210;-71
2023/05/16 10:08:21;;;;;;;4.03;1.97;;;13.00;99.90;;;;;;4985988;28;20245;-72
2023/05/16 10:10:52;;;;;;;3.40;2.00;;;13.20;99.90;;;;;;4986419;28;20214;-71
2023/05/16 10:13:20;;;;;;;3.90;2.23;;;13.00;99.90;;;;;;4986305;28;20218;-71
2023/05/16 10:15:49;;;;;;;3.63;2.20;;;12.90;99.90;;;;;;4985979;28;20711;-71
2023/05/16 10:18:18;;;;;;;4.70;2.37;;;12.90;99.90;;;;;;4985474;28;20720;-71
2023/05/16 10:20:49;;;;;;;6.97;2.23;;;12.90;99.90;;;;;;4986214;28;20214;-71
2023/05/16 10:23:18;;;;;;;8.03;2.20;;;13.00;99.90;;;;;;4985738;28;20233;-71
2023/05/16 10:25:46;;;;;;;3.80;2.20;;;13.00;99.90;;;;;;4985886;28;20220;-71
2023/05/16 10:28:15;;;;;;;7.13;2.20;;;12.90;99.90;;;;;;4986264;28;20218;-71
2023/05/16 10:30:43;;;;;;;8.37;3.03;;;12.80;99.90;;;;;;4985997;28;20214;-71
2023/05/16 10:33:12;;;;;;;7.70;2.47;;;12.60;99.90;;;;;;4986318;28;20253;-71
2023/05/16 10:35:40;;;;;;;5.30;2.17;;;12.60;99.90;;;;;;4986083;28;20214;-71
2023/05/16 10:38:09;;;;;;;9.13;2.60;;;12.70;99.90;;;;;;4985488;28;20221;-72
2023/05/16 10:40:38;;;;;;;9.43;2.53;;;12.80;99.90;;;;;;4985394;28;20276;-71
2023/05/16 10:43:07;;;;;;;7.80;2.23;;;12.80;99.90;;;;;;4985452;28;20230;-71
2023/05/16 10:45:34;;;;;;;5.30;2.00;;;13.00;99.90;;;;;;4967411;28;20223;-71
2023/05/16 10:48:03;;;;;;;5.40;2.30;;;13.20;99.90;;;;;;4966580;28;20386;-71
2023/05/16 10:50:40;;;;;;;8.73;2.37;;;13.40;99.90;;;;;;4966086;28;20210;-71
2023/05/16 10:53:19;;;;;;;3.83;1.93;;;13.50;99.90;;;;;;4966675;28;20207;-71
2023/05/16 10:56:11;;;;;;;9.17;2.73;;;13.60;99.90;;;;;;4966499;28;20230;-71
2023/05/16 10:58:42;;;;;;;4.27;1.93;;;13.70;99.90;;;;;;4966275;28;20223;-71
2023/05/16 11:01:17;;;;;;;8.17;2.30;;;13.80;99.90;;;;;;4966418;28;20571;-71
2023/05/16 11:04:06;;;;;;;7.20;2.43;;;13.90;99.90;;;;;;4982962;28;20253;-71
2023/05/16 11:06:35;;;;;;;6.17;2.13;;;13.90;99.90;;;;;;4985928;28;20206;-71
2023/05/16 11:09:08;;;;;;;4.70;2.03;;;13.80;99.90;;;;;;4985579;28;20348;-71
2023/05/16 11:11:45;;;;;;;10.80;2.50;;;13.70;99.90;;;;;;4968260;28;20210;-71
2023/05/16 11:14:21;;;;;;;9.03;2.30;;;13.60;99.90;;;;;;4974394;28;20209;-71
2023/05/16 11:16:52;;;;;;;7.60;2.17;;;13.50;99.90;;;;;;4988549;28;20197;-71
2023/05/16 11:19:30;;;;;;;9.90;2.43;;;13.40;99.90;;;;;;4989275;28;20300;-71
2023/05/16 11:22:24;;;;;;;6.37;2.23;;;13.30;99.90;;;;;;4989679;28;20760;-72
2023/05/16 11:24:57;;;;;;;7.67;2.37;;;13.30;99.90;;;;;;4986640;28;20293;-72
2023/05/16 11:27:26;;;;;;;10.70;2.20;;;13.30;99.90;;;;;;4989346;28;20421;-71
2023/05/16 11:29:55;;;;;;;3.50;1.73;;;13.40;99.90;;;;;;4989277;28;20234;-71
2023/05/16 11:32:23;;;;;;;8.77;1.97;;;13.30;99.90;;;;;;4988811;28;20297;-71
2023/05/16 11:34:50;;;;;;;7.07;2.40;;;13.20;99.90;;;;;;4989369;28;20238;-72
2023/05/16 11:37:20;;;;;;;7.33;2.03;;;13.20;99.90;;;;;;4989002;28;20236;-72
2023/05/16 11:39:47;;;;;;;5.83;1.97;;;13.40;99.90;;;;;;4986999;28;20218;-72
2023/05/16 11:42:14;;;;;;;5.77;2.00;;;13.70;99.90;;;;;;4969563;28;20294;-71
2023/05/16 11:44:41;;;;;;;6.10;2.03;;;14.00;99.90;;;;;;4969389;28;20516;-72
2023/05/16 11:47:08;;;;;;;7.57;2.30;;;14.50;99.90;;;;;;4969484;28;20310;-72
2023/05/16 11:49:36;;;;;;;6.00;1.90;;;14.50;99.90;;;;;;4968993;28;20301;-72
2023/05/16 11:52:03;;;;;;;6.17;2.27;;;14.60;99.90;;;;;;4969347;28;20207;-72
2023/05/16 11:54:33;;;;;;;4.97;1.80;;;14.60;99.90;;;;;;4969233;28;20297;-72
2023/05/16 11:57:00;;;;;;;7.83;2.37;;;14.70;99.90;;;;;;4969832;28;20286;-72
2023/05/16 11:59:27;;;;;;;7.87;2.00;;;14.90;99.90;;;;;;4968624;28;20270;-72
2023/05/16 12:01:54;;;;;;;4.80;2.13;;;15.20;99.90;;;;;;4969190;28;20214;-72
2023/05/16 12:04:22;;;;;;;4.87;2.00;;;15.20;99.90;;;;;;4969441;28;20238;-72
2023/05/16 12:07:00;;;;;;;7.53;2.00;;;15.30;99.90;;;;;;4968920;28;20218;-72
2023/05/16 12:09:26;;;;;;;7.60;1.97;;;15.40;99.90;;;;;;4968666;28;20234;-72
2023/05/16 12:11:55;;;;;;;5.43;2.00;;;15.40;99.90;;;;;;4988328;28;20300;-72
2023/05/16 12:14:22;;;;;;;8.03;2.10;;;15.40;99.90;;;;;;4988477;28;20715;-72
2023/05/16 12:16:52;;;;;;;3.03;1.50;;;15.40;99.90;;;;;;4988505;28;20297;-72
2023/05/16 12:19:19;;;;;;;6.70;2.17;;;15.30;99.90;;;;;;4988415;28;20384;-72
2023/05/16 12:21:46;;;;;;;9.03;1.90;;;15.20;99.90;;;;;;4988414;28;20229;-71
2023/05/16 12:24:13;;;;;;;6.00;2.13;;;15.10;99.90;;;;;;4987879;28;20308;-71
2023/05/16 12:26:42;;;;;;;7.63;2.37;;;15.10;99.90;;;;;;4988246;28;20206;-72
2023/05/16 12:29:11;;;;;;;9.20;2.53;;;15.20;99.90;;;;;;4987645;28;20213;-72
2023/05/16 12:31:40;;;;;;;6.00;1.67;;;15.50;99.90;;;;;;4987934;28;20202;-72
2023/05/16 12:34:15;;;;;;;6.13;1.90;;;15.90;99.90;;;;;;4988033;28;20214;-72
2023/05/16 12:36:43;;;;;;;41.93;4.70;;;16.30;99.90;;;;;;4982638;28;20214;-72
2023/05/16 12:39:12;;;;;;;6.90;1.90;;;16.60;99.90;;;;;;4987569;28;20213;-72
2023/05/16 12:41:42;;;;;;;26.67;3.43;;;16.80;99.90;;;;;;4987783;28;20210;-72
2023/05/16 12:44:15;;;;;;;4.70;1.83;;;17.30;99.90;;;;;;4987552;28;20248;-72